createdAt,value
2023-03-06T00:00:57.802Z,3.50
2023-03-06T00:04:59.441Z,3.50
2023-03-06T00:09:01.106Z,3.50
2023-03-06T00:13:05.754Z,3.40
2023-03-06T00:17:07.428Z,3.40
2023-03-06T00:21:09.499Z,3.40
2023-03-06T00:25:17.028Z,3.30
2023-03-06T00:29:18.696Z,3.30
2023-03-06T00:33:20.358Z,3.30
2023-03-06T00:37:23.902Z,3.20
2023-03-06T00:41:26.969Z,3.20
2023-03-06T00:45:29.517Z,3.20
2023-03-06T00:49:31.205Z,3.20
2023-03-06T00:53:32.993Z,3.20
2023-03-06T00:57:34.653Z,3.20
2023-03-06T01:01:36.309Z,3.20
2023-03-06T01:05:38.818Z,3.20
2023-03-06T01:09:41.138Z,3.20
2023-03-06T01:13:44.033Z,3.20
2023-03-06T01:17:45.786Z,3.20
2023-03-06T01:21:47.486Z,3.20
2023-03-06T01:25:49.118Z,3.30
2023-03-06T01:29:50.739Z,3.30
2023-03-06T01:33:52.833Z,3.30
2023-03-06T01:37:54.472Z,3.30
2023-03-06T01:41:56.103Z,3.20
2023-03-06T01:46:29.867Z,3.10
2023-03-06T01:50:31.568Z,3.10
2023-03-06T01:54:46.411Z,3.00
2023-03-06T01:58:49.584Z,2.90
2023-03-06T02:03:05.561Z,2.90
2023-03-06T02:07:08.245Z,2.90
2023-03-06T02:11:22.373Z,2.90
2023-03-06T02:15:25.745Z,2.90
2023-03-06T02:19:51.354Z,2.90
2023-03-06T02:24:13.218Z,3.00
2023-03-06T02:28:17.506Z,3.00
2023-03-06T02:32:19.335Z,3.00
2023-03-06T02:36:21.032Z,3.00
2023-03-06T02:40:24.010Z,3.10
2023-03-06T02:44:27.427Z,3.00
2023-03-06T02:48:29.088Z,3.10
2023-03-06T02:52:30.832Z,3.10
2023-03-06T02:56:32.513Z,3.10
2023-03-06T03:00:34.831Z,3.00
2023-03-06T03:04:36.462Z,3.00
2023-03-06T03:08:38.289Z,3.00
2023-03-06T03:12:40.082Z,3.00
2023-03-06T03:16:41.709Z,3.10
2023-03-06T03:20:43.671Z,3.00
2023-03-06T03:24:45.888Z,3.00
2023-03-06T03:28:47.635Z,3.00
2023-03-06T03:32:49.286Z,3.00
2023-03-06T03:36:51.094Z,3.00
2023-03-06T03:40:52.945Z,3.00
2023-03-06T03:44:54.581Z,2.90
2023-03-06T03:48:56.455Z,3.00
2023-03-06T03:52:58.094Z,3.00
2023-03-06T03:56:59.733Z,2.90
2023-03-06T04:01:01.409Z,3.00
2023-03-06T04:05:04.868Z,3.00
2023-03-06T04:09:06.643Z,3.00
2023-03-06T04:13:10.046Z,3.00
2023-03-06T04:17:12.010Z,3.00
2023-03-06T04:21:13.817Z,3.10
2023-03-06T04:25:15.494Z,3.10
2023-03-06T04:29:17.209Z,3.00
2023-03-06T04:33:19.034Z,3.00
2023-03-06T04:37:23.368Z,3.00
2023-03-06T04:41:25.425Z,2.90
2023-03-06T04:45:29.783Z,2.90
2023-03-06T04:49:31.556Z,3.00
2023-03-06T04:53:33.537Z,2.90
2023-03-06T04:57:36.508Z,3.00
2023-03-06T05:01:38.190Z,3.00
2023-03-06T05:05:40.432Z,3.00
2023-03-06T05:09:42.048Z,2.90
2023-03-06T05:13:43.796Z,3.00
2023-03-06T05:17:46.396Z,3.00
2023-03-06T05:21:48.155Z,3.00
2023-03-06T05:25:50.004Z,3.10
2023-03-06T05:29:51.705Z,3.00
2023-03-06T05:33:53.301Z,3.00
2023-03-06T05:37:54.986Z,3.00
2023-03-06T05:41:56.676Z,3.00
2023-03-06T05:46:03.092Z,2.90
2023-03-06T05:50:07.847Z,2.90
2023-03-06T05:54:09.485Z,2.80
2023-03-06T05:58:11.107Z,2.80
2023-03-06T06:02:12.838Z,2.80
2023-03-06T06:06:15.623Z,2.80
2023-03-06T06:10:17.688Z,2.70
2023-03-06T06:14:19.759Z,2.70
2023-03-06T06:18:21.506Z,2.60
2023-03-06T06:22:23.323Z,2.50
2023-03-06T06:26:24.957Z,2.50
2023-03-06T06:30:26.646Z,2.60
2023-03-06T06:34:28.956Z,2.60
2023-03-06T06:38:30.687Z,2.70
2023-03-06T06:42:38.923Z,2.70
2023-03-06T06:51:05.693Z,2.80
2023-03-06T06:55:08.203Z,2.90
2023-03-06T06:59:16.717Z,2.90
2023-03-06T07:03:19.186Z,2.90
2023-03-06T07:07:20.861Z,3.00
2023-03-06T07:11:23.150Z,2.90
2023-03-06T07:15:26.984Z,3.00
2023-03-06T07:19:28.688Z,3.00
2023-03-06T07:23:30.775Z,3.10
2023-03-06T07:27:32.607Z,3.20
2023-03-06T07:31:34.413Z,3.20
2023-03-06T07:35:36.324Z,3.20
2023-03-06T07:39:38.012Z,3.30
2023-03-06T07:43:41.254Z,3.30
2023-03-06T07:47:42.946Z,3.30
2023-03-06T07:51:44.939Z,3.30
2023-03-06T07:55:46.572Z,3.40
2023-03-06T07:59:48.252Z,3.40
2023-03-06T08:03:50.435Z,3.40
2023-03-06T08:07:52.252Z,3.30
2023-03-06T08:11:53.939Z,3.30
2023-03-06T08:15:56.570Z,3.30
2023-03-06T08:19:58.323Z,3.40
2023-03-06T08:24:00.079Z,3.50
2023-03-06T08:28:01.845Z,3.70
2023-03-06T08:32:03.703Z,3.70
2023-03-06T08:36:05.703Z,3.80
2023-03-06T08:40:08.288Z,3.80
2023-03-06T08:44:10.464Z,3.90
2023-03-06T08:48:12.150Z,4.00
2023-03-06T08:52:14.639Z,4.00
2023-03-06T08:56:28.689Z,4.00
2023-03-06T09:00:31.881Z,4.00
2023-03-06T09:04:33.653Z,4.00
2023-03-06T09:08:35.275Z,4.00
2023-03-06T09:12:49.862Z,4.00
2023-03-06T09:16:53.201Z,4.00
2023-03-06T09:20:55.951Z,3.90
2023-03-06T09:24:58.057Z,3.80
2023-03-06T09:28:59.684Z,3.50
2023-03-06T09:33:01.356Z,3.50
2023-03-06T09:37:03.344Z,3.50
2023-03-06T09:41:27.705Z,3.70
2023-03-06T09:45:30.420Z,4.00
2023-03-06T09:49:59.958Z,4.00
2023-03-06T09:54:12.181Z,4.00
2023-03-06T09:58:22.681Z,4.00
2023-03-06T10:02:31.949Z,4.00
2023-03-06T10:06:48.526Z,3.90
2023-03-06T10:10:58.458Z,3.90
2023-03-06T10:15:07.247Z,4.00
2023-03-06T10:19:17.979Z,4.00
2023-03-06T10:23:47.859Z,4.10
2023-03-06T10:28:03.027Z,4.30
2023-03-06T10:32:14.121Z,4.50
2023-03-06T10:36:17.883Z,4.60
2023-03-06T10:40:23.572Z,5.10
2023-03-06T10:44:25.657Z,5.50
2023-03-06T10:48:30.060Z,5.90
2023-03-06T10:52:34.376Z,6.00
2023-03-06T10:56:44.639Z,6.00
2023-03-06T11:00:46.441Z,6.00
2023-03-06T11:04:54.876Z,5.70
2023-03-06T11:09:23.213Z,5.50
2023-03-06T11:13:27.557Z,5.10
2023-03-06T11:17:31.961Z,5.00
2023-03-06T11:21:36.528Z,5.10
2023-03-06T11:25:42.897Z,5.00
2023-03-06T11:29:48.447Z,4.90
2023-03-06T11:34:02.325Z,4.90
2023-03-06T11:38:12.586Z,4.90
2023-03-06T11:42:27.089Z,5.00
2023-03-06T11:46:34.158Z,5.40
2023-03-06T11:50:40.341Z,6.40
2023-03-06T11:54:42.002Z,7.30
2023-03-06T11:58:46.446Z,8.50
2023-03-06T12:03:12.792Z,8.90
2023-03-06T12:07:32.223Z,9.80
2023-03-06T12:11:58.634Z,10.10
2023-03-06T12:16:07.292Z,10.20
2023-03-06T12:20:34.350Z,9.70
2023-03-06T12:25:03.787Z,9.80
2023-03-06T12:29:16.821Z,9.60
2023-03-06T12:33:45.333Z,10.50
2023-03-06T12:38:33.099Z,11.60
2023-03-06T12:42:55.883Z,10.70
2023-03-06T12:47:02.204Z,9.40
2023-03-06T12:51:07.373Z,9.00
2023-03-06T12:55:17.292Z,9.10
2023-03-06T12:59:34.274Z,9.00
2023-03-06T13:03:55.990Z,7.80
2023-03-06T13:08:27.081Z,7.00
2023-03-06T13:12:58.088Z,6.90
2023-03-06T13:17:22.710Z,7.00
2023-03-06T13:21:57.037Z,6.60
2023-03-06T13:26:00.825Z,6.40
2023-03-06T13:30:41.049Z,6.30
2023-03-06T13:34:46.794Z,6.50
2023-03-06T13:38:48.437Z,6.60
2023-03-06T13:42:50.027Z,6.40
2023-03-06T13:47:06.336Z,6.30
2023-03-06T13:51:23.255Z,6.70
2023-03-06T13:55:37.979Z,7.80
2023-03-06T14:00:17.291Z,8.20
2023-03-06T14:04:53.387Z,7.80
2023-03-06T14:08:55.238Z,8.20
2023-03-06T14:13:07.264Z,9.10
2023-03-06T14:17:20.045Z,9.00
2023-03-06T14:21:38.369Z,8.80
2023-03-06T14:25:42.625Z,8.90
2023-03-06T14:29:46.422Z,8.90
2023-03-06T14:33:53.148Z,8.80
2023-03-06T14:38:01.488Z,8.80
2023-03-06T14:42:26.494Z,8.70
2023-03-06T14:46:28.168Z,8.80
2023-03-06T14:50:33.435Z,8.50
2023-03-06T14:54:39.304Z,7.90
2023-03-06T14:58:40.885Z,7.40
2023-03-06T15:02:43.458Z,7.10
2023-03-06T15:06:45.581Z,7.20
2023-03-06T15:11:02.123Z,7.20
2023-03-06T15:15:07.866Z,7.10
2023-03-06T15:19:21.267Z,6.90
2023-03-06T15:23:25.792Z,6.90
2023-03-06T15:27:30.089Z,7.00
2023-03-06T15:31:32.996Z,7.00
2023-03-06T15:35:37.778Z,6.70
2023-03-06T15:39:41.149Z,6.60
2023-03-06T15:43:42.843Z,6.60
2023-03-06T15:47:46.103Z,6.50
2023-03-06T15:51:47.891Z,6.20
2023-03-06T15:55:51.695Z,6.20
2023-03-06T15:59:54.036Z,6.00
2023-03-06T16:03:55.769Z,5.90
2023-03-06T16:07:57.760Z,5.70
2023-03-06T16:11:59.634Z,5.70
2023-03-06T16:16:01.359Z,5.70
2023-03-06T16:20:03.120Z,5.70
2023-03-06T16:24:04.998Z,5.70
2023-03-06T16:28:11.794Z,5.60
2023-03-06T16:32:13.648Z,5.60
2023-03-06T16:36:23.773Z,5.50
2023-03-06T16:40:37.512Z,5.40
2023-03-06T16:44:39.190Z,5.30
2023-03-06T16:48:40.855Z,5.30
2023-03-06T16:52:42.518Z,5.20
2023-03-06T16:56:44.252Z,5.20
2023-03-06T17:00:45.888Z,5.20
2023-03-06T17:04:47.540Z,5.20
2023-03-06T17:08:50.385Z,5.10
2023-03-06T17:12:52.592Z,5.10
2023-03-06T17:16:54.202Z,5.10
2023-03-06T17:20:56.816Z,5.10
2023-03-06T17:25:00.101Z,5.00
2023-03-06T17:29:01.993Z,5.00
2023-03-06T17:33:03.963Z,4.90
2023-03-06T17:37:05.758Z,5.00
2023-03-06T17:41:09.331Z,4.90
2023-03-06T17:45:11.710Z,4.90
2023-03-06T17:49:13.416Z,4.90
2023-03-06T17:53:15.067Z,4.90
2023-03-06T17:57:16.804Z,4.90
2023-03-06T18:01:21.919Z,4.90
2023-03-06T18:05:23.736Z,4.80
2023-03-06T18:09:25.515Z,4.80
2023-03-06T18:13:27.255Z,4.80
2023-03-06T18:17:28.931Z,4.80
2023-03-06T18:21:30.624Z,4.80
2023-03-06T18:25:32.433Z,4.70
2023-03-06T18:29:34.127Z,4.70
2023-03-06T18:33:35.787Z,4.70
2023-03-06T18:37:37.607Z,4.70
2023-03-06T18:41:39.860Z,4.70
2023-03-06T18:45:44.037Z,4.70
2023-03-06T18:49:45.904Z,4.70
2023-03-06T18:53:47.795Z,4.70
2023-03-06T18:57:49.450Z,4.70
2023-03-06T19:01:57.219Z,4.70
2023-03-06T19:05:59.252Z,4.70
2023-03-06T19:10:00.947Z,4.70
2023-03-06T19:14:02.691Z,4.70
2023-03-06T19:18:04.410Z,4.80
2023-03-06T19:22:06.111Z,4.80
2023-03-06T19:26:08.547Z,4.80
2023-03-06T19:30:11.413Z,4.80
2023-03-06T19:34:13.091Z,4.70
2023-03-06T19:38:15.438Z,4.80
2023-03-06T19:42:17.402Z,4.80
2023-03-06T19:46:19.687Z,4.80
2023-03-06T19:50:23.846Z,4.80
2023-03-06T19:54:25.544Z,4.80
2023-03-06T19:58:27.179Z,4.80
2023-03-06T20:02:28.992Z,4.80
2023-03-06T20:06:38.906Z,4.80
2023-03-06T20:10:40.553Z,4.70
2023-03-06T20:14:42.614Z,4.70
2023-03-06T20:18:45.294Z,4.70
2023-03-06T20:22:46.931Z,4.70
2023-03-06T20:26:50.743Z,4.70
2023-03-06T20:30:52.466Z,4.70
2023-03-06T20:34:54.298Z,4.80
2023-03-06T20:38:58.708Z,4.70
2023-03-06T20:43:00.338Z,4.70
2023-03-06T20:47:01.999Z,4.80
2023-03-06T20:51:10.181Z,4.80
2023-03-06T20:55:11.877Z,4.70
2023-03-06T20:59:14.320Z,4.70
2023-03-06T21:03:15.963Z,4.70
2023-03-06T21:07:17.701Z,4.70
2023-03-06T21:11:19.499Z,4.70
2023-03-06T21:15:21.526Z,4.60
2023-03-06T21:19:23.208Z,4.70
2023-03-06T21:23:25.131Z,4.70
2023-03-06T21:27:26.768Z,4.70
2023-03-06T21:31:29.747Z,4.60
2023-03-06T21:35:31.466Z,4.60
2023-03-06T21:39:33.188Z,4.50
2023-03-06T21:43:34.933Z,4.30
2023-03-06T21:47:38.671Z,4.20
2023-03-06T21:51:40.513Z,3.90
2023-03-06T21:55:42.157Z,3.80
2023-03-06T21:59:43.772Z,3.70
2023-03-06T22:03:45.502Z,3.60
2023-03-06T22:07:47.157Z,3.60
2023-03-06T22:11:48.829Z,3.50
2023-03-06T22:15:51.818Z,3.50
2023-03-06T22:19:53.489Z,3.50
2023-03-06T22:23:57.444Z,3.50
2023-03-06T22:27:59.125Z,3.50
2023-03-06T22:32:00.841Z,3.50
2023-03-06T22:36:06.170Z,3.50
2023-03-06T22:40:08.822Z,3.60
2023-03-06T22:44:16.967Z,3.60
2023-03-06T22:48:19.983Z,3.70
2023-03-06T22:52:21.675Z,3.70
2023-03-06T22:56:23.569Z,3.80
2023-03-06T23:00:25.452Z,3.80
2023-03-06T23:04:27.278Z,3.70
2023-03-06T23:08:28.978Z,3.70
2023-03-06T23:12:30.648Z,3.80
2023-03-06T23:16:33.347Z,3.80
2023-03-06T23:20:34.974Z,3.80
2023-03-06T23:24:36.832Z,3.90
2023-03-06T23:28:38.604Z,3.80
2023-03-06T23:32:40.384Z,3.90
2023-03-06T23:36:42.100Z,3.90
2023-03-06T23:40:43.848Z,3.90
2023-03-06T23:44:45.702Z,3.90
2023-03-06T23:48:47.420Z,3.90
2023-03-06T23:52:52.398Z,3.90
2023-03-06T23:56:54.062Z,3.90
